Terminal Aerodrome Forecast
Issued by NWS Rapid City, SD

Home | Current Version | Previous Version | Text Only | Print | Product List | Glossary Off
Versions: 1 2 3 4 5 6 7 8 9 10 11 12 13 14 15 16 17 18 19 20 21 22

468
FTUS43 KUNR 251140
TAFRAP
TAF
KRAP 251140Z 2512/2612 32008KT P6SM BKN100
     FM252000 30007KT P6SM BKN060
     FM260100 30005KT P6SM SCT060=

USA.gov is the U.S. government's official web portal to all federal, state and local government web resources and services.